createdAt,value
2022-12-31T00:00:01.002Z,0.00
2022-12-31T00:01:01.015Z,0.00
2022-12-31T00:02:01.223Z,0.00
2022-12-31T00:03:01.123Z,0.00
2022-12-31T00:04:00.983Z,0.00
2022-12-31T00:05:01.013Z,0.00
2022-12-31T00:06:00.945Z,0.00
2022-12-31T00:07:00.967Z,0.00
2022-12-31T00:08:00.965Z,0.00
2022-12-31T00:09:00.930Z,0.00
2022-12-31T00:10:00.894Z,0.00
2022-12-31T00:11:00.954Z,0.00
2022-12-31T00:12:00.839Z,0.00
2022-12-31T00:13:00.890Z,0.00
2022-12-31T00:14:00.861Z,0.00
2022-12-31T00:15:00.830Z,0.00
2022-12-31T00:16:00.816Z,0.00
2022-12-31T00:17:00.909Z,0.00
2022-12-31T00:18:00.784Z,0.00
2022-12-31T00:19:00.826Z,0.00
2022-12-31T00:20:00.738Z,0.00
2022-12-31T00:21:00.750Z,0.00
2022-12-31T00:22:00.734Z,0.00
2022-12-31T00:23:00.841Z,0.00
2022-12-31T00:24:00.709Z,0.00
2022-12-31T00:25:00.736Z,0.00
2022-12-31T00:26:00.640Z,0.00
2022-12-31T00:27:00.646Z,0.00
2022-12-31T00:28:00.702Z,0.00
2022-12-31T00:29:00.684Z,0.00
2022-12-31T00:30:04.497Z,0.00
2022-12-31T00:31:00.687Z,0.00
2022-12-31T00:32:00.565Z,0.00
2022-12-31T00:33:00.579Z,0.00
2022-12-31T00:34:00.587Z,0.00
2022-12-31T00:35:00.672Z,0.00
2022-12-31T00:36:00.557Z,0.00
2022-12-31T00:37:00.565Z,0.00
2022-12-31T00:38:00.499Z,0.00
2022-12-31T00:39:00.573Z,0.00
2022-12-31T00:40:00.465Z,0.00
2022-12-31T00:41:00.518Z,0.00
2022-12-31T00:42:00.458Z,0.00
2022-12-31T00:43:00.488Z,0.00
2022-12-31T00:44:00.427Z,0.00
2022-12-31T00:45:00.455Z,0.00
2022-12-31T00:46:00.464Z,0.00
2022-12-31T00:47:00.465Z,0.00
2022-12-31T00:48:00.386Z,0.00
2022-12-31T00:49:00.398Z,0.00
2022-12-31T00:50:00.342Z,0.00
2022-12-31T00:51:00.376Z,0.00
2022-12-31T00:52:00.311Z,0.00
2022-12-31T00:53:00.461Z,0.00
2022-12-31T00:54:00.374Z,0.00
2022-12-31T00:55:00.328Z,0.00
2022-12-31T00:56:00.289Z,0.00
2022-12-31T00:57:00.300Z,0.00
2022-12-31T00:58:00.261Z,0.00
2022-12-31T00:59:00.490Z,0.00
2022-12-31T01:00:00.228Z,0.00
2022-12-31T01:01:00.326Z,0.00
2022-12-31T01:02:00.336Z,0.00
2022-12-31T01:03:00.371Z,0.00
2022-12-31T01:04:00.152Z,0.00
2022-12-31T01:05:00.299Z,0.00
2022-12-31T01:06:00.150Z,0.00
2022-12-31T01:07:00.134Z,0.00
2022-12-31T01:08:00.121Z,0.00
2022-12-31T01:09:00.142Z,0.00
2022-12-31T01:10:00.142Z,0.00
2022-12-31T01:11:00.433Z,0.00
2022-12-31T01:12:00.039Z,0.00
2022-12-31T01:13:00.089Z,0.00
2022-12-31T01:14:00.023Z,0.00
2022-12-31T01:15:00.044Z,0.00
2022-12-31T01:16:00.004Z,0.00
2022-12-31T01:17:00.020Z,0.00
2022-12-31T01:17:59.968Z,0.00
2022-12-31T01:18:59.978Z,0.00
2022-12-31T01:19:59.945Z,0.00
2022-12-31T01:20:59.956Z,0.00
2022-12-31T01:21:59.894Z,0.00
2022-12-31T01:22:59.974Z,0.00
2022-12-31T01:23:59.865Z,0.00
2022-12-31T01:24:59.889Z,0.00
2022-12-31T01:25:59.873Z,0.00
2022-12-31T01:26:59.852Z,0.00
2022-12-31T01:27:59.840Z,0.00
2022-12-31T01:28:59.969Z,0.00
2022-12-31T01:29:59.793Z,0.00
2022-12-31T01:30:59.912Z,0.00
2022-12-31T01:31:59.771Z,0.00
2022-12-31T01:32:59.795Z,0.00
2022-12-31T01:33:59.769Z,0.00
2022-12-31T01:34:59.864Z,0.00
2022-12-31T01:35:59.740Z,0.00
2022-12-31T01:36:59.764Z,0.00
2022-12-31T01:37:59.683Z,0.00
2022-12-31T01:38:59.747Z,0.00
2022-12-31T01:39:59.674Z,0.00
2022-12-31T01:40:59.710Z,0.00
2022-12-31T01:41:59.661Z,0.00
2022-12-31T01:42:59.644Z,0.00
2022-12-31T01:43:59.642Z,0.00
2022-12-31T01:44:59.635Z,0.00
2022-12-31T01:45:59.628Z,0.00
2022-12-31T01:46:59.627Z,0.00
2022-12-31T01:47:59.583Z,0.00
2022-12-31T01:48:59.585Z,0.00
2022-12-31T01:49:59.539Z,0.00
2022-12-31T01:50:59.556Z,0.00
2022-12-31T01:51:59.490Z,0.00
2022-12-31T01:52:59.550Z,0.00
2022-12-31T01:53:59.500Z,0.00
2022-12-31T01:54:59.489Z,0.00
2022-12-31T01:55:59.482Z,0.00
2022-12-31T01:56:59.481Z,0.00
2022-12-31T01:57:59.418Z,0.00
2022-12-31T01:58:59.491Z,0.00
2022-12-31T01:59:59.391Z,0.00
2022-12-31T02:01:00.409Z,0.00
2022-12-31T02:01:59.429Z,0.00
2022-12-31T02:02:59.489Z,0.00
2022-12-31T02:03:59.334Z,0.00
2022-12-31T02:04:59.389Z,0.00
2022-12-31T02:05:59.336Z,0.00
2022-12-31T02:06:59.324Z,0.00
2022-12-31T02:07:59.319Z,0.00
2022-12-31T02:08:59.322Z,0.00
2022-12-31T02:09:59.259Z,0.00
2022-12-31T02:10:59.340Z,0.00
2022-12-31T02:11:59.234Z,0.00
2022-12-31T02:12:59.254Z,0.00
2022-12-31T02:13:59.232Z,0.00
2022-12-31T02:14:59.216Z,0.00
2022-12-31T02:15:59.222Z,0.00
2022-12-31T02:16:59.239Z,0.00
2022-12-31T02:17:59.148Z,0.00
2022-12-31T02:18:59.236Z,0.00
2022-12-31T02:19:59.152Z,0.00
2022-12-31T02:20:59.174Z,0.00
2022-12-31T02:21:59.106Z,0.00
2022-12-31T02:22:59.196Z,0.00
2022-12-31T02:23:59.069Z,0.00
2022-12-31T02:24:59.093Z,0.00
2022-12-31T02:25:59.082Z,0.00
2022-12-31T02:26:59.058Z,0.00
2022-12-31T02:27:59.046Z,0.00
2022-12-31T02:28:59.103Z,0.00
2022-12-31T02:29:58.989Z,0.00
2022-12-31T02:30:59.099Z,0.00
2022-12-31T02:31:58.976Z,0.00
2022-12-31T02:32:58.985Z,0.00
2022-12-31T02:33:58.969Z,0.00
2022-12-31T02:34:58.980Z,0.00
2022-12-31T02:35:58.950Z,0.00
2022-12-31T02:36:58.953Z,0.00
2022-12-31T02:37:58.905Z,0.00
2022-12-31T02:38:58.931Z,0.00
2022-12-31T02:39:58.862Z,0.00
2022-12-31T02:40:58.927Z,0.00
2022-12-31T02:41:58.860Z,0.00
2022-12-31T02:42:58.861Z,0.00
2022-12-31T02:43:58.831Z,0.00
2022-12-31T02:44:58.843Z,0.00
2022-12-31T02:45:58.789Z,0.00
2022-12-31T02:46:58.940Z,0.00
2022-12-31T02:47:58.754Z,0.00
2022-12-31T02:48:58.778Z,0.00
2022-12-31T02:49:58.755Z,0.00
2022-12-31T02:50:58.767Z,0.00
2022-12-31T02:51:58.700Z,0.00
2022-12-31T02:52:58.747Z,0.00
2022-12-31T02:53:58.696Z,0.00
2022-12-31T02:54:58.701Z,0.00
2022-12-31T02:55:58.676Z,0.00
2022-12-31T02:56:58.698Z,0.00
2022-12-31T02:57:58.620Z,0.00
2022-12-31T02:58:58.786Z,0.00
2022-12-31T02:59:58.592Z,0.00
2022-12-31T03:00:58.664Z,0.00
2022-12-31T03:01:58.757Z,0.00
2022-12-31T03:02:58.598Z,0.00
2022-12-31T03:03:58.572Z,0.00
2022-12-31T03:04:58.612Z,0.00
2022-12-31T03:05:58.516Z,0.00
2022-12-31T03:06:58.532Z,0.00
2022-12-31T03:07:58.517Z,0.00
2022-12-31T03:08:58.536Z,0.00
2022-12-31T03:09:58.463Z,0.00
2022-12-31T03:10:58.537Z,0.00
2022-12-31T03:11:58.437Z,0.00
2022-12-31T03:12:58.471Z,0.00
2022-12-31T03:13:58.432Z,0.00
2022-12-31T03:14:58.421Z,0.00
2022-12-31T03:15:58.428Z,0.00
2022-12-31T03:16:58.443Z,0.00
2022-12-31T03:17:58.375Z,0.00
2022-12-31T03:18:58.403Z,0.00
2022-12-31T03:19:58.342Z,0.00
2022-12-31T03:20:58.338Z,0.00
2022-12-31T03:21:58.334Z,0.00
2022-12-31T03:22:58.454Z,0.00
2022-12-31T03:23:58.279Z,0.00
2022-12-31T03:24:58.288Z,0.00
2022-12-31T03:25:58.276Z,0.00
2022-12-31T03:26:58.261Z,0.00
2022-12-31T03:27:58.279Z,0.00
2022-12-31T03:28:58.317Z,0.00
2022-12-31T03:29:58.200Z,0.00
2022-12-31T03:30:58.241Z,0.00
2022-12-31T03:31:58.170Z,0.00
2022-12-31T03:32:58.181Z,0.00
2022-12-31T03:33:58.173Z,0.00
2022-12-31T03:34:58.171Z,0.00
2022-12-31T03:35:58.152Z,0.00
2022-12-31T03:36:58.164Z,0.00
2022-12-31T03:37:58.104Z,0.00
2022-12-31T03:38:58.129Z,0.00
2022-12-31T03:39:58.064Z,0.00
2022-12-31T03:40:58.113Z,0.00
2022-12-31T03:41:58.077Z,0.00
2022-12-31T03:42:58.055Z,0.00
2022-12-31T03:43:58.039Z,0.00
2022-12-31T03:44:58.052Z,0.00
2022-12-31T03:45:57.999Z,0.00
2022-12-31T03:46:58.141Z,0.00
2022-12-31T03:47:57.977Z,0.00
2022-12-31T03:48:57.966Z,0.00
2022-12-31T03:49:57.957Z,0.00
2022-12-31T03:50:57.947Z,0.00
2022-12-31T03:51:57.932Z,0.00
2022-12-31T03:52:58.064Z,0.00
2022-12-31T03:53:57.868Z,0.00
2022-12-31T03:54:57.887Z,0.00
2022-12-31T03:55:57.882Z,0.00
2022-12-31T03:57:00.253Z,0.00
2022-12-31T03:57:57.828Z,0.00
2022-12-31T03:58:57.895Z,0.00
2022-12-31T03:59:57.800Z,0.00
2022-12-31T04:00:57.954Z,0.00
2022-12-31T04:01:57.875Z,0.00
2022-12-31T04:02:57.861Z,0.00
2022-12-31T04:03:57.773Z,0.00
2022-12-31T04:04:57.821Z,0.00
2022-12-31T04:05:57.720Z,0.00
2022-12-31T04:06:57.775Z,0.00
2022-12-31T04:07:57.691Z,0.00
2022-12-31T04:08:57.724Z,0.00
2022-12-31T04:09:57.715Z,0.00
2022-12-31T04:10:57.811Z,0.00
2022-12-31T04:11:57.647Z,0.00
2022-12-31T04:12:57.653Z,0.00
2022-12-31T04:13:57.636Z,0.00
2022-12-31T04:14:57.636Z,0.00
2022-12-31T04:15:57.605Z,0.00
2022-12-31T04:16:57.759Z,0.00
2022-12-31T04:17:57.569Z,0.00
2022-12-31T04:18:57.604Z,0.00
2022-12-31T04:19:57.564Z,0.00
2022-12-31T04:20:57.552Z,0.00
2022-12-31T04:21:57.535Z,0.00
2022-12-31T04:22:57.545Z,0.00
2022-12-31T04:23:57.499Z,0.00
2022-12-31T04:24:57.528Z,0.00
2022-12-31T04:25:57.467Z,0.00
2022-12-31T04:27:02.083Z,0.00
2022-12-31T04:27:58.492Z,0.00
2022-12-31T04:28:57.486Z,0.00
2022-12-31T04:29:57.411Z,0.00
2022-12-31T04:30:57.448Z,0.00
2022-12-31T04:31:57.447Z,0.00
2022-12-31T04:32:57.386Z,0.00
2022-12-31T04:33:57.415Z,0.00
2022-12-31T04:34:57.356Z,0.00
2022-12-31T04:35:57.364Z,0.00
2022-12-31T04:36:57.364Z,0.00
2022-12-31T04:37:57.293Z,0.00
2022-12-31T04:38:57.339Z,0.00
2022-12-31T04:40:03.524Z,0.00
2022-12-31T04:40:58.291Z,0.00
2022-12-31T04:41:57.277Z,0.00
2022-12-31T04:42:57.255Z,0.00
2022-12-31T04:43:57.239Z,0.00
2022-12-31T04:44:57.233Z,0.00
2022-12-31T04:45:57.338Z,0.00
2022-12-31T04:46:57.204Z,0.00
2022-12-31T04:47:57.225Z,0.00
2022-12-31T04:48:57.200Z,0.00
2022-12-31T04:49:57.185Z,0.00
2022-12-31T04:50:57.167Z,0.00
2022-12-31T04:51:57.268Z,0.00
2022-12-31T04:52:57.115Z,0.00
2022-12-31T04:53:57.148Z,0.00
2022-12-31T04:54:57.063Z,0.00
2022-12-31T04:55:57.137Z,0.00
2022-12-31T04:56:57.075Z,0.00
2022-12-31T04:57:57.181Z,0.00
2022-12-31T04:58:57.025Z,0.00
2022-12-31T04:59:57.083Z,0.00
2022-12-31T05:00:57.090Z,0.00
2022-12-31T05:01:57.211Z,0.00
2022-12-31T05:02:57.032Z,0.00
2022-12-31T05:03:57.095Z,0.00
2022-12-31T05:04:56.956Z,0.00
2022-12-31T05:05:56.985Z,0.00
2022-12-31T05:06:56.970Z,0.00
2022-12-31T05:07:56.958Z,0.00
2022-12-31T05:08:56.909Z,0.00
2022-12-31T05:09:56.943Z,0.00
2022-12-31T05:10:56.891Z,0.00
2022-12-31T05:11:56.887Z,0.00
2022-12-31T05:12:56.832Z,0.00
2022-12-31T05:13:56.874Z,0.00
2022-12-31T05:14:56.837Z,0.00
2022-12-31T05:15:56.929Z,0.00
2022-12-31T05:16:56.829Z,0.00
2022-12-31T05:17:56.826Z,0.00
2022-12-31T05:18:56.756Z,0.00
2022-12-31T05:19:56.799Z,0.00
2022-12-31T05:20:56.763Z,0.00
2022-12-31T05:21:56.765Z,0.00
2022-12-31T05:22:56.732Z,0.00
2022-12-31T05:23:56.713Z,0.00
2022-12-31T05:24:56.676Z,0.00
2022-12-31T05:25:56.714Z,0.00
2022-12-31T05:26:56.655Z,0.00
2022-12-31T05:27:56.792Z,0.00
2022-12-31T05:28:56.645Z,0.00
2022-12-31T05:29:56.638Z,0.00
2022-12-31T05:30:56.664Z,0.00
2022-12-31T05:31:56.632Z,0.00
2022-12-31T05:32:56.599Z,0.00
2022-12-31T05:33:56.648Z,0.00
2022-12-31T05:34:56.575Z,0.00
2022-12-31T05:35:56.559Z,0.00
2022-12-31T05:36:56.518Z,0.00
2022-12-31T05:37:56.558Z,0.00
2022-12-31T05:38:56.495Z,0.00
2022-12-31T05:39:56.654Z,0.00
2022-12-31T05:40:56.487Z,0.00
2022-12-31T05:41:56.471Z,0.00
2022-12-31T05:42:57.425Z,0.00
2022-12-31T05:43:56.458Z,0.00
2022-12-31T05:44:56.409Z,0.00
2022-12-31T05:45:56.540Z,0.00
2022-12-31T05:46:56.383Z,0.00
2022-12-31T05:47:56.427Z,0.00
2022-12-31T05:48:56.380Z,0.00
2022-12-31T05:49:56.364Z,0.00
2022-12-31T05:50:56.357Z,0.00
2022-12-31T05:51:56.382Z,0.00
2022-12-31T05:52:56.306Z,0.00
2022-12-31T05:53:56.342Z,0.00
2022-12-31T05:54:56.272Z,0.00
2022-12-31T05:55:56.318Z,0.00
2022-12-31T05:56:56.286Z,0.00
2022-12-31T05:57:56.294Z,0.00
2022-12-31T05:58:56.304Z,0.00
2022-12-31T05:59:56.280Z,0.00
2022-12-31T06:00:56.263Z,0.00
2022-12-31T06:01:56.239Z,0.00
2022-12-31T06:02:56.315Z,0.00
2022-12-31T06:03:56.401Z,0.00
2022-12-31T06:04:56.138Z,0.00
2022-12-31T06:05:56.199Z,0.00
2022-12-31T06:06:56.117Z,0.00
2022-12-31T06:07:56.159Z,0.00
2022-12-31T06:08:56.137Z,0.00
2022-12-31T06:09:56.141Z,0.00
2022-12-31T06:10:56.091Z,0.00
2022-12-31T06:11:56.079Z,0.00
2022-12-31T06:12:56.053Z,0.00
2022-12-31T06:13:56.077Z,0.00
2022-12-31T06:14:56.032Z,0.00
2022-12-31T06:15:56.227Z,0.00
2022-12-31T06:16:56.029Z,0.00
2022-12-31T06:17:56.004Z,0.00
2022-12-31T06:18:55.963Z,0.00
2022-12-31T06:19:55.998Z,0.00
2022-12-31T06:20:55.960Z,0.00
2022-12-31T06:21:55.984Z,0.00
2022-12-31T06:22:55.932Z,0.00
2022-12-31T06:23:55.914Z,0.00
2022-12-31T06:24:55.874Z,0.00
2022-12-31T06:25:55.920Z,0.00
2022-12-31T06:26:55.855Z,0.00
2022-12-31T06:27:56.021Z,0.00
2022-12-31T06:28:55.851Z,0.00
2022-12-31T06:29:55.835Z,0.00
2022-12-31T06:30:55.850Z,0.00
2022-12-31T06:31:55.816Z,0.00
2022-12-31T06:32:55.775Z,0.00
2022-12-31T06:33:55.848Z,0.00
2022-12-31T06:34:55.773Z,0.00
2022-12-31T06:35:55.772Z,0.00
2022-12-31T06:36:55.726Z,0.00
2022-12-31T06:37:55.754Z,0.00
2022-12-31T06:38:55.696Z,0.00
2022-12-31T06:39:55.784Z,0.00
2022-12-31T06:40:55.694Z,0.00
2022-12-31T06:41:55.679Z,0.00
2022-12-31T06:42:59.935Z,0.00
2022-12-31T06:43:55.654Z,0.00
2022-12-31T06:44:55.669Z,0.00
2022-12-31T06:45:55.775Z,0.00
2022-12-31T06:46:55.637Z,0.00
2022-12-31T06:47:55.633Z,0.00
2022-12-31T06:48:55.593Z,0.00
2022-12-31T06:49:55.580Z,0.00
2022-12-31T06:50:55.558Z,0.00
2022-12-31T06:51:55.591Z,0.00
2022-12-31T06:52:55.517Z,0.00
2022-12-31T06:53:55.555Z,0.00
2022-12-31T06:54:55.483Z,0.00
2022-12-31T06:55:55.528Z,0.00
2022-12-31T06:56:55.486Z,0.00
2022-12-31T06:57:55.513Z,0.00
2022-12-31T06:58:55.452Z,0.00
2022-12-31T06:59:55.451Z,0.00
2022-12-31T07:00:55.412Z,0.00
2022-12-31T07:01:55.585Z,1.00
2022-12-31T07:02:55.413Z,1.00
2022-12-31T07:03:55.449Z,1.00
2022-12-31T07:04:55.376Z,1.00
2022-12-31T07:05:55.369Z,1.00
2022-12-31T07:06:55.325Z,1.00
2022-12-31T07:07:55.374Z,1.00
2022-12-31T07:08:55.324Z,2.00
2022-12-31T07:09:55.355Z,4.00
2022-12-31T07:10:55.299Z,2.00
2022-12-31T07:11:55.286Z,2.00
2022-12-31T07:12:55.250Z,4.00
2022-12-31T07:13:55.304Z,2.00
2022-12-31T07:14:55.263Z,4.00
2022-12-31T07:15:55.322Z,7.00
2022-12-31T07:16:55.226Z,6.00
2022-12-31T07:17:55.223Z,13.00
2022-12-31T07:18:55.198Z,15.00
2022-12-31T07:19:57.648Z,9.00
2022-12-31T07:20:55.149Z,18.00
2022-12-31T07:21:55.219Z,16.00
2022-12-31T07:22:55.149Z,20.00
2022-12-31T07:23:55.141Z,13.00
2022-12-31T07:24:55.103Z,26.00
2022-12-31T07:25:55.144Z,43.00
2022-12-31T07:26:57.042Z,39.00
2022-12-31T07:27:55.151Z,31.00
2022-12-31T07:28:55.071Z,23.00
2022-12-31T07:29:55.065Z,31.00
2022-12-31T07:30:55.126Z,37.00
2022-12-31T07:31:55.055Z,33.00
2022-12-31T07:32:54.999Z,60.00
2022-12-31T07:33:55.113Z,98.00
2022-12-31T07:34:54.983Z,97.00
2022-12-31T07:35:55.011Z,87.00
2022-12-31T07:36:54.970Z,83.00
2022-12-31T07:37:54.966Z,83.00
2022-12-31T07:38:54.918Z,93.00
2022-12-31T07:39:55.056Z,85.00
2022-12-31T07:40:57.571Z,74.00
2022-12-31T07:41:54.910Z,64.00
2022-12-31T07:42:54.884Z,60.00
2022-12-31T07:43:54.894Z,47.00
2022-12-31T07:44:54.840Z,41.00
2022-12-31T07:45:54.915Z,100.00
2022-12-31T07:46:54.828Z,112.00
2022-12-31T07:48:00.527Z,95.00
2022-12-31T07:48:55.813Z,91.00
2022-12-31T07:49:54.813Z,139.00
2022-12-31T07:50:54.794Z,143.00
2022-12-31T07:51:54.879Z,140.00
2022-12-31T07:52:54.730Z,103.00
2022-12-31T07:53:54.777Z,124.00
2022-12-31T07:54:54.713Z,139.00
2022-12-31T07:55:54.748Z,144.00
2022-12-31T07:56:54.712Z,191.00
2022-12-31T07:57:54.814Z,186.00
2022-12-31T07:58:54.669Z,196.00
2022-12-31T07:59:54.667Z,204.00
2022-12-31T08:00:54.689Z,192.00
2022-12-31T08:01:54.815Z,197.00
2022-12-31T08:02:54.635Z,231.00
2022-12-31T08:03:54.650Z,302.00
2022-12-31T08:04:54.599Z,285.00
2022-12-31T08:05:54.635Z,317.00
2022-12-31T08:06:54.600Z,432.00
2022-12-31T08:07:54.573Z,470.00
2022-12-31T08:08:54.575Z,408.00
2022-12-31T08:09:54.617Z,510.00
2022-12-31T08:10:54.520Z,564.00
2022-12-31T08:11:54.506Z,540.00
2022-12-31T08:12:54.484Z,550.00
2022-12-31T08:13:54.504Z,545.00
2022-12-31T08:14:54.445Z,545.00
2022-12-31T08:15:54.631Z,563.00
2022-12-31T08:16:54.446Z,594.00
2022-12-31T08:17:54.436Z,606.00
2022-12-31T08:18:54.435Z,611.00
2022-12-31T08:19:54.399Z,644.00
2022-12-31T08:20:54.371Z,633.00
2022-12-31T08:21:54.454Z,628.00
2022-12-31T08:22:54.353Z,657.00
2022-12-31T08:23:54.374Z,623.00
2022-12-31T08:24:54.334Z,610.00
2022-12-31T08:25:54.357Z,638.00
2022-12-31T08:26:54.300Z,650.00
2022-12-31T08:27:54.441Z,576.00
2022-12-31T08:28:54.285Z,548.00
2022-12-31T08:29:54.278Z,578.00
2022-12-31T08:30:54.248Z,597.00
2022-12-31T08:31:54.305Z,500.00
2022-12-31T08:32:54.217Z,459.00
2022-12-31T08:33:54.352Z,585.00
2022-12-31T08:34:54.163Z,624.00
2022-12-31T08:35:54.212Z,623.00
2022-12-31T08:36:54.182Z,607.00
2022-12-31T08:37:54.157Z,541.00
2022-12-31T08:38:54.144Z,575.00
2022-12-31T08:39:54.266Z,690.00
2022-12-31T08:40:54.124Z,923.00
2022-12-31T08:41:54.157Z,1400.00
2022-12-31T08:42:54.115Z,1422.00
2022-12-31T08:43:54.080Z,1367.00
2022-12-31T08:44:54.070Z,1309.00
2022-12-31T08:45:54.184Z,1140.00
2022-12-31T08:46:54.005Z,1024.00
2022-12-31T08:47:59.661Z,1204.00
2022-12-31T08:48:55.036Z,1231.00
2022-12-31T08:49:54.003Z,1118.00
2022-12-31T08:50:53.995Z,993.00
2022-12-31T08:51:54.079Z,1014.00
2022-12-31T08:52:53.934Z,1089.00
2022-12-31T08:53:53.975Z,1171.00
2022-12-31T08:54:53.922Z,1058.00
2022-12-31T08:55:53.961Z,977.00
2022-12-31T08:56:53.897Z,993.00
2022-12-31T08:57:53.928Z,958.00
2022-12-31T08:58:53.918Z,802.00
2022-12-31T08:59:53.852Z,507.00
2022-12-31T09:00:53.890Z,502.00
2022-12-31T09:01:53.977Z,433.00
2022-12-31T09:02:53.824Z,624.00
2022-12-31T09:03:53.947Z,1019.00
2022-12-31T09:04:53.840Z,774.00
2022-12-31T09:05:53.771Z,440.00
2022-12-31T09:06:53.800Z,312.00
2022-12-31T09:07:53.733Z,354.00
2022-12-31T09:08:53.743Z,406.00
2022-12-31T09:09:53.861Z,340.00
2022-12-31T09:10:53.717Z,321.00
2022-12-31T09:11:53.741Z,372.00
2022-12-31T09:12:53.721Z,368.00
2022-12-31T09:13:53.655Z,381.00
2022-12-31T09:14:53.666Z,329.00
2022-12-31T09:15:53.683Z,320.00
2022-12-31T09:16:53.699Z,315.00
2022-12-31T09:17:53.588Z,312.00
2022-12-31T09:18:53.653Z,376.00
2022-12-31T09:19:53.572Z,373.00
2022-12-31T09:20:53.609Z,349.00
2022-12-31T09:21:53.686Z,314.00
2022-12-31T09:22:54.391Z,316.00
2022-12-31T09:23:53.557Z,330.00
2022-12-31T09:24:53.565Z,365.00
2022-12-31T09:25:53.513Z,370.00
2022-12-31T09:26:53.533Z,349.00
2022-12-31T09:27:53.505Z,343.00
2022-12-31T09:28:53.471Z,338.00
2022-12-31T09:29:53.458Z,380.00
2022-12-31T09:30:53.498Z,476.00
2022-12-31T09:31:53.446Z,487.00
2022-12-31T09:33:00.320Z,545.00
2022-12-31T09:33:54.460Z,575.00
2022-12-31T09:34:53.402Z,600.00
2022-12-31T09:35:53.392Z,613.00
2022-12-31T09:36:53.399Z,669.00
2022-12-31T09:37:53.329Z,710.00
2022-12-31T09:38:53.369Z,828.00
2022-12-31T09:39:53.353Z,779.00
2022-12-31T09:40:53.348Z,824.00
2022-12-31T09:41:53.301Z,785.00
2022-12-31T09:42:53.295Z,660.00
2022-12-31T09:43:58.976Z,780.00
2022-12-31T09:44:54.333Z,845.00
2022-12-31T09:45:53.247Z,554.00
2022-12-31T09:46:53.235Z,450.00
2022-12-31T09:47:53.223Z,401.00
2022-12-31T09:48:53.241Z,393.00
2022-12-31T09:49:53.168Z,464.00
2022-12-31T09:50:53.333Z,628.00
2022-12-31T09:51:53.146Z,922.00
2022-12-31T09:52:53.165Z,1368.00
2022-12-31T09:53:53.155Z,1494.00
2022-12-31T09:54:53.138Z,1387.00
2022-12-31T09:55:53.125Z,1315.00
2022-12-31T09:56:58.883Z,1155.00
2022-12-31T09:57:54.070Z,933.00
2022-12-31T09:58:53.097Z,782.00
2022-12-31T09:59:53.041Z,773.00
2022-12-31T10:00:53.062Z,572.00
2022-12-31T10:01:53.152Z,590.00
2022-12-31T10:02:53.229Z,493.00
2022-12-31T10:03:59.229Z,476.00
2022-12-31T10:04:54.066Z,531.00
2022-12-31T10:05:52.957Z,538.00
2022-12-31T10:06:53.001Z,607.00
2022-12-31T10:07:53.820Z,633.00
2022-12-31T10:08:52.981Z,740.00
2022-12-31T10:09:52.932Z,448.00
2022-12-31T10:10:52.910Z,325.00
2022-12-31T10:11:52.900Z,257.00
2022-12-31T10:12:52.922Z,220.00
2022-12-31T10:13:52.845Z,457.00
2022-12-31T10:14:52.990Z,699.00
2022-12-31T10:15:52.844Z,1059.00
2022-12-31T10:16:52.864Z,1338.00
2022-12-31T10:17:52.815Z,1436.00
2022-12-31T10:18:52.847Z,1645.00
2022-12-31T10:19:52.775Z,1747.00
2022-12-31T10:20:52.815Z,1784.00
2022-12-31T10:21:52.764Z,1896.00
2022-12-31T10:22:52.760Z,1756.00
2022-12-31T10:23:52.735Z,1902.00
2022-12-31T10:24:52.749Z,2034.00
2022-12-31T10:25:52.753Z,2179.00
2022-12-31T10:26:53.569Z,2288.00
2022-12-31T10:27:52.668Z,2268.00
2022-12-31T10:28:52.668Z,2482.00
2022-12-31T10:29:52.658Z,2530.00
2022-12-31T10:30:52.668Z,2548.00
2022-12-31T10:31:52.630Z,2610.00
2022-12-31T10:32:52.682Z,2835.00
2022-12-31T10:33:52.576Z,3093.00
2022-12-31T10:34:52.607Z,2806.00
2022-12-31T10:35:52.578Z,2485.00
2022-12-31T10:36:52.593Z,2423.00
2022-12-31T10:37:52.526Z,2448.00
2022-12-31T10:38:52.606Z,2441.00
2022-12-31T10:39:52.514Z,1815.00
2022-12-31T10:40:52.515Z,1471.00
2022-12-31T10:41:52.492Z,1326.00
2022-12-31T10:42:52.493Z,1532.00
2022-12-31T10:43:52.480Z,1862.00
2022-12-31T10:44:52.597Z,1840.00
2022-12-31T10:45:52.435Z,1685.00
2022-12-31T10:46:52.464Z,1695.00
2022-12-31T10:47:52.387Z,1931.00
2022-12-31T10:48:52.424Z,2675.00
2022-12-31T10:49:52.399Z,3126.00
2022-12-31T10:50:52.523Z,2934.00
2022-12-31T10:51:52.327Z,3062.00
2022-12-31T10:52:52.350Z,3060.00
2022-12-31T10:53:52.341Z,2717.00
2022-12-31T10:54:52.327Z,3482.00
2022-12-31T10:55:52.323Z,3757.00
2022-12-31T10:56:52.366Z,5300.00
2022-12-31T10:57:52.262Z,5867.00
2022-12-31T10:58:52.296Z,6229.00
2022-12-31T10:59:52.247Z,6287.00
2022-12-31T11:00:52.234Z,6409.00
2022-12-31T11:01:52.373Z,6314.00
2022-12-31T11:02:52.393Z,6271.00
2022-12-31T11:03:52.212Z,6380.00
2022-12-31T11:04:52.228Z,6411.00
2022-12-31T11:05:52.152Z,6301.00
2022-12-31T11:06:52.218Z,6273.00
2022-12-31T11:07:52.114Z,6018.00
2022-12-31T11:08:52.246Z,5889.00
2022-12-31T11:09:52.123Z,5703.00
2022-12-31T11:10:52.102Z,5030.00
2022-12-31T11:11:52.090Z,4466.00
2022-12-31T11:12:52.112Z,3858.00
2022-12-31T11:13:52.044Z,3533.00
2022-12-31T11:14:52.207Z,3607.00
2022-12-31T11:15:52.058Z,3803.00
2022-12-31T11:16:52.031Z,3884.00
2022-12-31T11:17:52.015Z,4284.00
2022-12-31T11:18:52.018Z,4824.00
2022-12-31T11:19:51.984Z,4990.00
2022-12-31T11:20:52.113Z,4884.00
2022-12-31T11:21:51.927Z,4553.00
2022-12-31T11:22:51.949Z,4214.00
2022-12-31T11:23:51.935Z,3616.00
2022-12-31T11:24:51.948Z,2756.00
2022-12-31T11:25:51.896Z,2452.00
2022-12-31T11:26:51.990Z,2428.00
2022-12-31T11:27:51.858Z,2633.00
2022-12-31T11:28:51.882Z,2723.00
2022-12-31T11:29:51.848Z,2961.00
2022-12-31T11:30:51.873Z,2537.00
2022-12-31T11:31:51.817Z,2253.00
2022-12-31T11:32:51.963Z,2398.00
2022-12-31T11:33:51.758Z,2339.00
2022-12-31T11:34:51.820Z,2638.00
2022-12-31T11:35:51.755Z,3743.00
2022-12-31T11:36:51.761Z,4077.00
2022-12-31T11:37:51.741Z,3963.00
2022-12-31T11:38:51.807Z,3908.00
2022-12-31T11:39:51.698Z,3481.00
2022-12-31T11:40:51.741Z,3310.00
2022-12-31T11:41:51.693Z,2866.00
2022-12-31T11:42:51.681Z,2561.00
2022-12-31T11:43:51.669Z,2171.00
2022-12-31T11:44:51.715Z,1451.00
2022-12-31T11:45:51.615Z,1131.00
2022-12-31T11:46:51.685Z,1056.00
2022-12-31T11:48:28.612Z,1203.00
2022-12-31T11:48:52.602Z,1198.00
2022-12-31T11:49:51.584Z,1269.00
2022-12-31T11:50:51.602Z,1768.00
2022-12-31T11:51:51.548Z,2344.00
2022-12-31T11:52:51.585Z,2922.00
2022-12-31T11:53:51.514Z,2764.00
2022-12-31T11:54:51.517Z,2053.00
2022-12-31T11:55:51.550Z,1769.00
2022-12-31T11:56:51.545Z,1563.00
2022-12-31T11:57:51.464Z,1541.00
2022-12-31T11:58:51.535Z,2184.00
2022-12-31T11:59:51.432Z,2575.00
2022-12-31T12:00:51.445Z,2629.00
2022-12-31T12:01:51.431Z,2695.00
2022-12-31T12:02:51.520Z,2876.00
2022-12-31T12:03:51.464Z,2060.00
2022-12-31T12:04:51.426Z,1979.00
2022-12-31T12:05:51.404Z,2157.00
2022-12-31T12:06:51.393Z,2336.00
2022-12-31T12:07:51.372Z,2798.00
2022-12-31T12:08:51.473Z,2552.00
2022-12-31T12:09:52.448Z,2580.00
2022-12-31T12:10:51.315Z,2767.00
2022-12-31T12:11:51.325Z,3268.00
2022-12-31T12:12:51.330Z,3643.00
2022-12-31T12:13:51.242Z,3592.00
2022-12-31T12:14:51.451Z,3353.00
2022-12-31T12:15:51.296Z,3180.00
2022-12-31T12:16:51.235Z,2960.00
2022-12-31T12:17:51.250Z,2930.00
2022-12-31T12:18:51.199Z,3170.00
2022-12-31T12:19:51.209Z,2951.00
2022-12-31T12:20:51.244Z,2397.00
2022-12-31T12:21:51.119Z,2851.00
2022-12-31T12:22:51.203Z,4410.00
2022-12-31T12:23:51.105Z,5825.00
2022-12-31T12:24:51.118Z,5895.00
2022-12-31T12:25:51.104Z,5734.00
2022-12-31T12:26:51.145Z,5888.00
2022-12-31T12:27:51.045Z,5542.00
2022-12-31T12:28:51.083Z,4605.00
2022-12-31T12:29:51.045Z,4045.00
2022-12-31T12:30:51.072Z,3755.00
2022-12-31T12:31:51.053Z,3953.00
2022-12-31T12:32:51.107Z,4099.00
2022-12-31T12:33:50.983Z,3913.00
2022-12-31T12:34:51.007Z,3377.00
2022-12-31T12:35:50.953Z,2845.00
2022-12-31T12:36:50.953Z,2500.00
2022-12-31T12:37:50.950Z,2783.00
2022-12-31T12:38:50.972Z,3356.00
2022-12-31T12:39:50.919Z,2300.00
2022-12-31T12:40:50.939Z,2252.00
2022-12-31T12:41:50.901Z,2098.00
2022-12-31T12:42:50.925Z,1489.00
2022-12-31T12:43:50.880Z,1454.00
2022-12-31T12:44:50.920Z,1842.00
2022-12-31T12:45:52.322Z,2269.00
2022-12-31T12:46:50.905Z,2222.00
2022-12-31T12:47:50.793Z,2217.00
2022-12-31T12:48:50.812Z,2484.00
2022-12-31T12:49:50.796Z,3168.00
2022-12-31T12:50:50.874Z,3604.00